createdAt,value
2022-10-03T00:00:16.876Z,97741.83
2022-10-03T00:01:19.580Z,97736.87
2022-10-03T00:02:22.415Z,97736.26
2022-10-03T00:03:25.237Z,97734.77
2022-10-03T00:04:27.712Z,97737.69
2022-10-03T00:05:30.152Z,97734.05
2022-10-03T00:06:32.926Z,97735.26
2022-10-03T00:07:35.365Z,97739.81
2022-10-03T00:08:37.809Z,97739.99
2022-10-03T00:09:40.279Z,97746.13
2022-10-03T00:10:42.935Z,97752.89
2022-10-03T00:11:45.425Z,97751.41
2022-10-03T00:12:47.880Z,97750.36
2022-10-03T00:13:50.322Z,97752.30
2022-10-03T00:14:52.806Z,97752.48
2022-10-03T00:15:55.286Z,97756.97
2022-10-03T00:16:58.006Z,97761.20
2022-10-03T00:18:00.477Z,97760.21
2022-10-03T00:19:03.889Z,97765.43
2022-10-03T00:20:06.728Z,97768.80
2022-10-03T00:21:09.164Z,97764.61
2022-10-03T00:22:11.711Z,97769.23
2022-10-03T00:23:14.153Z,97765.61
2022-10-03T00:24:16.598Z,97771.14
2022-10-03T00:25:19.065Z,97771.88
2022-10-03T00:26:21.732Z,97784.00
2022-10-03T00:27:24.174Z,97774.84
2022-10-03T00:28:26.693Z,97774.45
2022-10-03T00:29:29.181Z,97784.17
2022-10-03T00:30:31.875Z,97781.31
2022-10-03T00:31:34.399Z,97778.67
2022-10-03T00:32:37.174Z,97780.66
2022-10-03T00:33:39.634Z,97784.23
2022-10-03T00:34:42.081Z,97794.77
2022-10-03T00:35:44.563Z,97782.03
2022-10-03T00:36:47.203Z,97782.80
2022-10-03T00:37:49.749Z,97789.00
2022-10-03T00:38:52.189Z,97789.00
2022-10-03T00:39:54.644Z,97791.42
2022-10-03T00:40:57.351Z,97800.80
2022-10-03T00:42:01.222Z,97792.07
2022-10-03T00:43:03.657Z,97789.88
2022-10-03T00:44:06.129Z,97796.52
2022-10-03T00:45:08.595Z,97801.17
2022-10-03T00:46:11.908Z,97789.50
2022-10-03T00:47:14.524Z,97791.87
2022-10-03T00:48:16.964Z,97801.61
2022-10-03T00:49:19.431Z,97801.61
2022-10-03T00:50:22.181Z,97805.52
2022-10-03T00:51:24.665Z,97797.03
2022-10-03T00:52:27.357Z,97804.87
2022-10-03T00:53:29.926Z,97808.88
2022-10-03T00:54:32.365Z,97809.36
2022-10-03T00:55:34.915Z,97808.60
2022-10-03T00:56:37.775Z,97809.52
2022-10-03T00:57:40.218Z,97809.52
2022-10-03T00:58:42.660Z,97816.81
2022-10-03T00:59:48.006Z,97825.80
2022-10-03T01:00:49.673Z,97812.16
2022-10-03T01:01:52.220Z,97823.52
2022-10-03T01:02:54.740Z,97825.53
2022-10-03T01:03:57.160Z,97831.63
2022-10-03T01:04:59.597Z,97829.23
2022-10-03T01:06:02.044Z,97828.98
2022-10-03T01:07:04.513Z,97834.25
2022-10-03T01:08:06.959Z,97827.62
2022-10-03T01:09:09.397Z,97838.50
2022-10-03T01:10:12.082Z,97833.36
2022-10-03T01:11:14.518Z,97831.27
2022-10-03T01:12:16.993Z,97845.43
2022-10-03T01:13:19.562Z,97839.17
2022-10-03T01:14:21.999Z,97839.79
2022-10-03T01:15:24.446Z,97837.53
2022-10-03T01:16:27.151Z,97837.25
2022-10-03T01:17:29.690Z,97833.09
2022-10-03T01:18:32.136Z,97844.61
2022-10-03T01:19:34.601Z,97833.70
2022-10-03T01:20:37.122Z,97832.81
2022-10-03T01:21:40.575Z,97841.73
2022-10-03T01:22:43.529Z,97837.63
2022-10-03T01:23:45.975Z,97846.72
2022-10-03T01:24:48.410Z,97844.25
2022-10-03T01:25:50.854Z,97833.62
2022-10-03T01:26:53.500Z,97842.27
2022-10-03T01:27:55.995Z,97847.98
2022-10-03T01:28:58.509Z,97844.91
2022-10-03T01:30:01.173Z,97840.91
2022-10-03T01:31:03.664Z,97844.91
2022-10-03T01:32:06.164Z,97840.72
2022-10-03T01:33:08.653Z,97843.43
2022-10-03T01:34:11.102Z,97842.08
2022-10-03T01:35:13.541Z,97856.14
2022-10-03T01:36:15.986Z,97845.27
2022-10-03T01:37:18.421Z,97856.97
2022-10-03T01:38:20.914Z,97849.44
2022-10-03T01:39:23.481Z,97848.25
2022-10-03T01:40:26.023Z,97855.16
2022-10-03T01:41:28.697Z,97861.49
2022-10-03T01:42:31.146Z,97868.60
2022-10-03T01:43:33.621Z,97871.77
2022-10-03T01:44:36.060Z,97868.15
2022-10-03T01:45:38.835Z,97874.66
2022-10-03T01:46:41.463Z,97870.30
2022-10-03T01:47:44.163Z,97871.65
2022-10-03T01:48:46.630Z,97875.67
2022-10-03T01:49:49.079Z,97877.11
2022-10-03T01:50:51.823Z,97883.00
2022-10-03T01:51:54.263Z,97882.37
2022-10-03T01:52:56.700Z,97885.01
2022-10-03T01:53:59.176Z,97882.55
2022-10-03T01:55:01.618Z,97883.56
2022-10-03T01:56:04.299Z,97888.46
2022-10-03T01:57:06.761Z,97895.53
2022-10-03T01:58:09.208Z,97884.55
2022-10-03T01:59:11.672Z,97889.81
2022-10-03T02:00:14.621Z,97888.46
2022-10-03T02:01:17.288Z,97889.16
2022-10-03T02:02:20.263Z,97890.52
2022-10-03T02:03:22.956Z,97903.67
2022-10-03T02:04:25.444Z,97896.23
2022-10-03T02:05:27.913Z,97900.70
2022-10-03T02:06:30.664Z,97902.52
2022-10-03T02:07:33.103Z,97906.42
2022-10-03T02:08:35.541Z,97904.42
2022-10-03T02:09:38.026Z,97916.30
2022-10-03T02:10:40.665Z,97914.66
2022-10-03T02:11:43.137Z,97917.58
2022-10-03T02:12:45.644Z,97918.30
2022-10-03T02:13:48.087Z,97915.22
2022-10-03T02:14:50.561Z,97919.45
2022-10-03T02:15:53.091Z,97916.10
2022-10-03T02:16:56.079Z,97918.90
2022-10-03T02:17:58.520Z,97917.45
2022-10-03T02:19:00.956Z,97925.97
2022-10-03T02:20:03.446Z,97921.06
2022-10-03T02:21:06.182Z,97928.66
2022-10-03T02:22:08.612Z,97924.06
2022-10-03T02:23:11.046Z,97931.48
2022-10-03T02:24:13.485Z,97930.56
2022-10-03T02:25:16.051Z,97924.12
2022-10-03T02:26:18.892Z,97937.90
2022-10-03T02:27:21.323Z,97935.83
2022-10-03T02:28:23.803Z,97943.36
2022-10-03T02:29:26.600Z,97929.55
2022-10-03T02:30:29.271Z,97938.62
2022-10-03T02:31:31.765Z,97932.89
2022-10-03T02:32:34.257Z,97943.77
2022-10-03T02:33:36.723Z,97941.14
2022-10-03T02:34:39.156Z,97935.06
2022-10-03T02:35:41.657Z,97933.11
2022-10-03T02:36:44.312Z,97936.15
2022-10-03T02:37:46.740Z,97933.88
2022-10-03T02:38:49.198Z,97931.57
2022-10-03T02:39:51.651Z,97920.23
2022-10-03T02:40:54.417Z,97931.25
2022-10-03T02:41:57.156Z,97933.25
2022-10-03T02:42:59.638Z,97938.15
2022-10-03T02:44:02.083Z,97932.89
2022-10-03T02:45:04.546Z,97937.16
2022-10-03T02:46:08.243Z,97940.27
2022-10-03T02:47:10.741Z,97934.65
2022-10-03T02:48:31.406Z,97941.09
2022-10-03T02:49:17.530Z,97929.55
2022-10-03T02:50:20.162Z,97947.63
2022-10-03T02:51:22.670Z,97942.37
2022-10-03T02:52:25.100Z,97941.88
2022-10-03T02:53:27.533Z,97950.42
2022-10-03T02:54:29.966Z,97942.89
2022-10-03T02:55:32.403Z,97946.50
2022-10-03T02:56:35.078Z,97946.04
2022-10-03T02:57:37.541Z,97947.95
2022-10-03T02:58:39.973Z,97947.95
2022-10-03T02:59:42.407Z,97946.34
2022-10-03T03:00:45.201Z,97951.60
2022-10-03T03:01:47.942Z,97955.22
2022-10-03T03:02:50.598Z,97954.04
2022-10-03T03:03:53.058Z,97950.42
2022-10-03T03:04:55.492Z,97960.78
2022-10-03T03:05:57.930Z,97950.73
2022-10-03T03:07:00.513Z,97953.69
2022-10-03T03:08:02.957Z,97962.70
2022-10-03T03:09:05.395Z,97956.73
2022-10-03T03:10:08.530Z,97961.52
2022-10-03T03:11:10.965Z,97964.66
2022-10-03T03:12:13.422Z,97959.41
2022-10-03T03:13:15.854Z,97962.23
2022-10-03T03:14:18.291Z,97969.77
2022-10-03T03:15:20.728Z,97967.95
2022-10-03T03:16:23.303Z,97969.25
2022-10-03T03:17:25.887Z,97974.55
2022-10-03T03:18:28.340Z,97968.99
2022-10-03T03:19:30.783Z,97971.45
2022-10-03T03:20:33.661Z,97977.34
2022-10-03T03:21:36.096Z,97964.55
2022-10-03T03:22:38.794Z,97967.66
2022-10-03T03:23:41.226Z,97982.14
2022-10-03T03:24:43.661Z,97961.05
2022-10-03T03:25:46.101Z,97968.94
2022-10-03T03:26:48.837Z,97979.50
2022-10-03T03:27:51.411Z,97973.63
2022-10-03T03:28:55.810Z,97981.67
2022-10-03T03:29:58.349Z,97976.77
2022-10-03T03:31:00.983Z,97982.80
2022-10-03T03:32:03.530Z,97987.39
2022-10-03T03:33:06.406Z,97984.61
2022-10-03T03:34:08.855Z,97991.83
2022-10-03T03:35:11.329Z,97984.13
2022-10-03T03:36:14.082Z,97974.62
2022-10-03T03:37:16.525Z,97979.39
2022-10-03T03:38:18.985Z,97986.45
2022-10-03T03:39:21.465Z,97984.31
2022-10-03T03:40:24.095Z,97980.84
2022-10-03T03:41:26.534Z,97987.23
2022-10-03T03:42:29.074Z,97996.63
2022-10-03T03:43:31.545Z,97984.97
2022-10-03T03:44:33.968Z,97993.02
2022-10-03T03:45:36.437Z,97992.70
2022-10-03T03:46:39.144Z,97994.53
2022-10-03T03:47:41.617Z,97989.28
2022-10-03T03:48:44.074Z,98011.77
2022-10-03T03:49:46.512Z,98002.89
2022-10-03T03:50:49.246Z,97999.59
2022-10-03T03:51:51.712Z,98007.97
2022-10-03T03:52:54.153Z,98011.92
2022-10-03T03:53:56.627Z,98022.13
2022-10-03T03:54:59.059Z,98012.40
2022-10-03T03:56:01.879Z,98020.13
2022-10-03T03:57:04.318Z,98007.81
2022-10-03T03:58:06.802Z,98013.69
2022-10-03T03:59:09.277Z,98018.78
2022-10-03T04:00:12.315Z,98017.97
2022-10-03T04:01:14.820Z,98026.98
2022-10-03T04:02:17.401Z,98021.89
2022-10-03T04:03:19.984Z,98017.14
2022-10-03T04:04:22.475Z,98021.30
2022-10-03T04:05:24.922Z,98038.37
2022-10-03T04:06:27.463Z,98037.07
2022-10-03T04:07:29.903Z,98038.21
2022-10-03T04:08:32.343Z,98038.17
2022-10-03T04:09:34.800Z,98037.03
2022-10-03T04:10:37.435Z,98036.20
2022-10-03T04:11:40.184Z,98044.73
2022-10-03T04:12:42.839Z,98056.23
2022-10-03T04:13:45.299Z,98045.39
2022-10-03T04:14:47.794Z,98056.11
2022-10-03T04:15:50.230Z,98056.89
2022-10-03T04:16:52.891Z,98046.38
2022-10-03T04:17:55.402Z,98054.77
2022-10-03T04:18:58.140Z,98058.27
2022-10-03T04:20:00.645Z,98066.63
2022-10-03T04:21:03.216Z,98063.52
2022-10-03T04:22:05.733Z,98062.41
2022-10-03T04:23:08.165Z,98061.27
2022-10-03T04:24:10.634Z,98058.30
2022-10-03T04:25:13.121Z,98059.11
2022-10-03T04:26:15.663Z,98066.84
2022-10-03T04:27:18.346Z,98061.94
2022-10-03T04:28:20.819Z,98069.50
2022-10-03T04:29:23.339Z,98068.67
2022-10-03T04:30:26.125Z,98067.19
2022-10-03T04:31:28.626Z,98070.13
2022-10-03T04:32:31.114Z,98068.52
2022-10-03T04:33:33.560Z,98067.66
2022-10-03T04:34:36.063Z,98070.95
2022-10-03T04:35:38.507Z,98072.58
2022-10-03T04:36:41.363Z,98068.46
2022-10-03T04:37:43.808Z,98070.95
2022-10-03T04:38:46.243Z,98077.54
2022-10-03T04:39:48.686Z,98077.86
2022-10-03T04:40:51.575Z,98074.38
2022-10-03T04:41:54.010Z,98071.88
2022-10-03T04:42:56.559Z,98067.45
2022-10-03T04:43:58.996Z,98088.00
2022-10-03T04:45:01.464Z,98093.26
2022-10-03T04:46:03.987Z,98080.97
2022-10-03T04:47:06.694Z,98086.91
2022-10-03T04:48:09.159Z,98082.61
2022-10-03T04:49:11.604Z,98088.16
2022-10-03T04:50:14.353Z,98077.83
2022-10-03T04:51:16.840Z,98090.98
2022-10-03T04:52:19.286Z,98095.20
2022-10-03T04:53:21.749Z,98087.02
2022-10-03T04:54:24.229Z,98086.67
2022-10-03T04:55:26.723Z,98091.11
2022-10-03T04:56:29.301Z,98095.03
2022-10-03T04:57:31.746Z,98091.59
2022-10-03T04:58:34.296Z,98095.36
2022-10-03T04:59:36.739Z,98088.92
2022-10-03T05:00:39.560Z,98089.23
2022-10-03T05:01:42.453Z,98094.50
2022-10-03T05:02:45.153Z,98100.39
2022-10-03T05:03:47.610Z,98092.97
2022-10-03T05:04:51.904Z,98097.25
2022-10-03T05:05:54.415Z,98110.05
2022-10-03T05:06:57.064Z,98106.24
2022-10-03T05:07:59.511Z,98104.75
2022-10-03T05:09:01.959Z,98096.08
2022-10-03T05:10:06.614Z,98098.07
2022-10-03T05:11:08.869Z,98106.24
2022-10-03T05:12:11.379Z,98102.86
2022-10-03T05:13:13.947Z,98096.27
2022-10-03T05:14:16.388Z,98110.72
2022-10-03T05:15:18.863Z,98118.53
2022-10-03T05:16:21.687Z,98101.30
2022-10-03T05:17:24.255Z,98092.66
2022-10-03T05:18:27.231Z,98108.28
2022-10-03T05:19:30.022Z,98101.25
2022-10-03T05:20:32.658Z,98108.44
2022-10-03T05:21:35.352Z,98110.52
2022-10-03T05:22:37.857Z,98105.25
2022-10-03T05:23:40.304Z,98108.34
2022-10-03T05:24:42.745Z,98108.19
2022-10-03T05:25:45.183Z,98114.50
2022-10-03T05:26:47.725Z,98100.81
2022-10-03T05:27:50.278Z,98105.72
2022-10-03T05:28:52.766Z,98104.84
2022-10-03T05:29:55.204Z,98110.05
2022-10-03T05:30:57.856Z,98110.15
2022-10-03T05:32:01.194Z,98117.23
2022-10-03T05:33:08.311Z,98116.23
2022-10-03T05:34:08.203Z,98121.97
2022-10-03T05:35:10.653Z,98112.25
2022-10-03T05:36:13.353Z,98122.37
2022-10-03T05:37:15.853Z,98130.17
2022-10-03T05:38:18.350Z,98142.45
2022-10-03T05:39:20.801Z,98130.20
2022-10-03T05:40:23.373Z,98124.33
2022-10-03T05:41:26.633Z,98133.16
2022-10-03T05:42:29.172Z,98129.62
2022-10-03T05:43:31.690Z,98139.17
2022-10-03T05:44:34.446Z,98148.98
2022-10-03T05:45:36.923Z,98135.07
2022-10-03T05:46:39.656Z,98139.06
2022-10-03T05:47:42.441Z,98143.42
2022-10-03T05:48:44.983Z,98145.44
2022-10-03T05:50:57.604Z,98150.17
2022-10-03T05:52:00.049Z,98143.70
2022-10-03T05:53:02.494Z,98142.71
2022-10-03T05:54:05.079Z,98139.34
2022-10-03T05:55:07.525Z,98145.44
2022-10-03T05:56:10.522Z,98144.70
2022-10-03T05:57:12.994Z,98148.16
2022-10-03T05:58:15.458Z,98150.72
2022-10-03T05:59:17.929Z,98154.27
2022-10-03T06:00:20.472Z,98150.80
2022-10-03T06:01:23.216Z,98147.63
2022-10-03T06:02:26.038Z,98157.44
2022-10-03T06:03:28.981Z,98157.59
2022-10-03T06:04:31.561Z,98154.39
2022-10-03T06:05:34.015Z,98154.39
2022-10-03T06:06:36.550Z,98158.05
2022-10-03T06:07:38.992Z,98161.14
2022-10-03T06:08:41.438Z,98162.22
2022-10-03T06:09:43.955Z,98169.14
2022-10-03T06:10:46.605Z,98171.41
2022-10-03T06:11:49.052Z,98169.34
2022-10-03T06:12:51.498Z,98182.06
2022-10-03T06:13:53.946Z,98176.05
2022-10-03T06:14:56.426Z,98172.86
2022-10-03T06:15:58.902Z,98176.95
2022-10-03T06:17:01.719Z,98175.58
2022-10-03T06:18:04.174Z,98178.19
2022-10-03T06:19:06.614Z,98182.85
2022-10-03T06:20:09.690Z,98188.38
2022-10-03T06:21:12.172Z,98174.94
2022-10-03T06:22:14.619Z,98194.69
2022-10-03T06:23:17.067Z,98185.39
2022-10-03T06:24:19.678Z,98178.73
2022-10-03T06:25:22.175Z,98188.30
2022-10-03T06:26:24.867Z,98189.41
2022-10-03T06:27:27.323Z,98190.12
2022-10-03T06:28:29.845Z,98199.69
2022-10-03T06:29:32.359Z,98197.80
2022-10-03T06:30:35.062Z,98202.70
2022-10-03T06:31:37.578Z,98201.05
2022-10-03T06:32:40.045Z,98204.44
2022-10-03T06:33:42.566Z,98201.59
2022-10-03T06:34:45.017Z,98206.25
2022-10-03T06:35:47.490Z,98204.69
2022-10-03T06:36:50.227Z,98209.06
2022-10-03T06:37:52.671Z,98209.72
2022-10-03T06:38:55.278Z,98217.53
2022-10-03T06:39:57.875Z,98213.07
2022-10-03T06:41:00.378Z,98208.08
2022-10-03T06:42:03.021Z,98219.01
2022-10-03T06:43:05.465Z,98224.38
2022-10-03T06:44:07.900Z,98223.09
2022-10-03T06:45:10.358Z,98226.55
2022-10-03T06:46:13.211Z,98225.19
2022-10-03T06:47:15.691Z,98227.63
2022-10-03T06:48:18.133Z,98227.01
2022-10-03T06:49:20.571Z,98228.45
2022-10-03T06:50:23.413Z,98226.55
2022-10-03T06:51:30.368Z,98226.09
2022-10-03T06:52:30.261Z,98230.55
2022-10-03T06:53:32.732Z,98231.20
2022-10-03T06:54:35.177Z,98235.66
2022-10-03T06:55:37.624Z,98230.00
2022-10-03T06:56:40.409Z,98234.08
2022-10-03T06:57:42.848Z,98230.18
2022-10-03T06:58:45.287Z,98240.54
2022-10-03T06:59:47.726Z,98246.27
2022-10-03T07:00:50.512Z,98236.80
2022-10-03T07:01:53.109Z,98236.91
2022-10-03T07:02:55.897Z,98241.27
2022-10-03T07:03:58.453Z,98244.08
2022-10-03T07:05:01.224Z,98241.09
2022-10-03T07:06:03.762Z,98240.06
2022-10-03T07:07:06.250Z,98240.06
2022-10-03T07:08:08.693Z,98246.62
2022-10-03T07:09:11.132Z,98251.90
2022-10-03T07:10:13.779Z,98249.02
2022-10-03T07:11:16.307Z,98249.73
2022-10-03T07:12:18.971Z,98249.80
2022-10-03T07:13:21.433Z,98245.55
2022-10-03T07:14:23.873Z,98254.37
2022-10-03T07:15:43.593Z,98251.73
2022-10-03T07:16:30.833Z,98260.09
2022-10-03T07:17:33.362Z,98252.89
2022-10-03T07:18:35.806Z,98254.95
2022-10-03T07:19:38.248Z,98259.75
2022-10-03T07:20:41.122Z,98270.14
2022-10-03T07:21:44.066Z,98264.24
2022-10-03T07:22:46.589Z,98264.10
2022-10-03T07:23:49.035Z,98261.34
2022-10-03T07:24:51.482Z,98259.14
2022-10-03T07:25:53.978Z,98267.72
2022-10-03T07:26:56.533Z,98264.25
2022-10-03T07:27:59.037Z,98267.38
2022-10-03T07:29:01.588Z,98257.27
2022-10-03T07:30:04.232Z,98270.66
2022-10-03T07:31:06.736Z,98254.86
2022-10-03T07:32:09.678Z,98267.58
2022-10-03T07:33:12.161Z,98279.86
2022-10-03T07:34:14.613Z,98273.19
2022-10-03T07:35:17.066Z,98267.25
2022-10-03T07:36:19.606Z,98273.54
2022-10-03T07:37:22.084Z,98269.28
2022-10-03T07:38:24.578Z,98272.92
2022-10-03T07:39:27.026Z,98273.63
2022-10-03T07:40:29.717Z,98276.71
2022-10-03T07:41:32.200Z,98275.38
2022-10-03T07:42:34.643Z,98287.13
2022-10-03T07:43:37.151Z,98290.55
2022-10-03T07:44:39.594Z,98272.30
2022-10-03T07:45:42.129Z,98291.81
2022-10-03T07:46:44.866Z,98288.16
2022-10-03T07:47:47.536Z,98288.05
2022-10-03T07:48:50.006Z,98288.09
2022-10-03T07:49:52.446Z,98286.02
2022-10-03T07:50:55.494Z,98286.27
2022-10-03T07:51:57.973Z,98289.41
2022-10-03T07:53:00.412Z,98290.84
2022-10-03T07:54:02.962Z,98293.95
2022-10-03T07:55:05.417Z,98297.82
2022-10-03T07:56:09.643Z,98297.82
2022-10-03T07:57:12.615Z,98296.08
2022-10-03T07:58:15.053Z,98301.41
2022-10-03T07:59:17.523Z,98300.02
2022-10-03T08:00:20.780Z,98305.45
2022-10-03T08:01:23.220Z,98303.84
2022-10-03T08:02:25.791Z,98306.57
2022-10-03T08:03:28.388Z,98314.08
2022-10-03T08:04:30.969Z,98300.98
2022-10-03T08:05:33.414Z,98313.83
2022-10-03T08:06:36.152Z,98314.26
2022-10-03T08:07:38.621Z,98309.79
2022-10-03T08:08:41.069Z,98311.80
2022-10-03T08:09:43.542Z,98319.12
2022-10-03T08:10:46.173Z,98314.64
2022-10-03T08:11:49.150Z,98319.38
2022-10-03T08:12:51.584Z,98324.06
2022-10-03T08:13:54.020Z,98311.91
2022-10-03T08:14:56.581Z,98327.75
2022-10-03T08:15:59.313Z,98325.63
2022-10-03T08:17:02.164Z,98325.80
2022-10-03T08:18:04.619Z,98326.58
2022-10-03T08:19:10.480Z,98347.36
2022-10-03T08:20:12.415Z,98330.61
2022-10-03T08:21:14.884Z,98332.92
2022-10-03T08:22:17.423Z,98342.68
2022-10-03T08:23:20.061Z,98337.28
2022-10-03T08:24:22.499Z,98343.84
2022-10-03T08:25:24.986Z,98347.48
2022-10-03T08:26:28.023Z,98347.05
2022-10-03T08:27:30.460Z,98332.73
2022-10-03T08:28:32.957Z,98346.41
2022-10-03T08:29:35.746Z,98358.62
2022-10-03T08:30:38.438Z,98344.09
2022-10-03T08:31:41.264Z,98352.08
2022-10-03T08:32:48.395Z,98353.52
2022-10-03T08:33:48.489Z,98366.36
2022-10-03T08:34:50.955Z,98360.52
2022-10-03T08:35:53.470Z,98362.11
2022-10-03T08:36:56.008Z,98363.22
2022-10-03T08:37:58.456Z,98367.72
2022-10-03T08:39:00.946Z,98357.81
2022-10-03T08:41:13.803Z,98351.66
2022-10-03T08:42:16.245Z,98366.55
2022-10-03T08:43:18.724Z,98352.45
2022-10-03T08:44:21.470Z,98361.18
2022-10-03T08:45:23.915Z,98359.20
2022-10-03T08:46:26.611Z,98354.54
2022-10-03T08:47:29.191Z,98361.33
2022-10-03T08:48:31.630Z,98354.86
2022-10-03T08:49:34.079Z,98356.95
2022-10-03T08:50:36.819Z,98365.73
2022-10-03T08:51:39.658Z,98372.24
2022-10-03T08:52:42.507Z,98358.78
2022-10-03T08:53:44.950Z,98365.93
2022-10-03T08:54:47.447Z,98365.75
2022-10-03T08:55:49.931Z,98368.70
2022-10-03T08:56:52.763Z,98378.91
2022-10-03T08:57:55.229Z,98380.70
2022-10-03T08:58:57.681Z,98389.48
2022-10-03T09:00:00.180Z,98377.84
2022-10-03T09:01:02.623Z,98374.19
2022-10-03T09:02:05.183Z,98381.95
2022-10-03T09:04:12.338Z,98389.81
2022-10-03T09:05:14.819Z,98391.91
2022-10-03T09:06:17.590Z,98392.40
2022-10-03T09:07:20.676Z,98391.52
2022-10-03T09:08:23.426Z,98387.55
2022-10-03T09:09:25.865Z,98384.66
2022-10-03T09:10:28.511Z,98381.80
2022-10-03T09:11:31.098Z,98387.13
2022-10-03T09:12:33.589Z,98381.80
2022-10-03T09:13:36.059Z,98384.52
2022-10-03T09:14:38.501Z,98386.18
2022-10-03T09:15:40.970Z,98386.66
2022-10-03T09:16:44.001Z,98364.03
2022-10-03T09:17:46.882Z,98383.84
2022-10-03T09:18:49.425Z,98383.85
2022-10-03T09:19:51.983Z,98392.20
2022-10-03T09:20:54.536Z,98393.20
2022-10-03T09:21:56.978Z,98397.70
2022-10-03T09:22:59.506Z,98398.34
2022-10-03T09:24:01.960Z,98400.77
2022-10-03T09:25:04.397Z,98406.70
2022-10-03T09:26:07.257Z,98410.18
2022-10-03T09:27:09.703Z,98392.63
2022-10-03T09:28:12.284Z,98404.20
2022-10-03T09:29:14.982Z,98402.91
2022-10-03T09:30:17.797Z,98415.14
2022-10-03T09:31:20.388Z,98410.69
2022-10-03T09:32:23.053Z,98412.77
2022-10-03T09:33:25.540Z,98412.19
2022-10-03T09:34:27.996Z,98411.30
2022-10-03T09:35:30.447Z,98407.47
2022-10-03T09:36:33.097Z,98405.23
2022-10-03T09:37:35.539Z,98409.11
2022-10-03T09:38:38.033Z,98412.62
2022-10-03T09:39:40.876Z,98415.14
2022-10-03T09:40:43.424Z,98418.06
2022-10-03T09:41:46.071Z,98414.78
2022-10-03T09:42:48.537Z,98414.22
2022-10-03T09:43:51.004Z,98404.22
2022-10-03T09:44:53.488Z,98408.09
2022-10-03T09:45:55.934Z,98410.34
2022-10-03T09:46:58.532Z,98408.91
2022-10-03T09:48:01.023Z,98410.32
2022-10-03T09:49:03.488Z,98401.71
2022-10-03T09:50:06.246Z,98402.13
2022-10-03T09:51:08.696Z,98407.87
2022-10-03T09:52:11.150Z,98400.67
2022-10-03T09:53:13.596Z,98400.25
2022-10-03T09:54:16.118Z,98403.95
2022-10-03T09:55:18.604Z,98407.17
2022-10-03T09:56:21.349Z,98400.84
2022-10-03T09:57:23.788Z,98406.52
2022-10-03T09:58:26.230Z,98401.20
2022-10-03T09:59:28.714Z,98408.79
2022-10-03T10:00:31.431Z,98417.56
2022-10-03T10:01:34.150Z,98405.63
2022-10-03T10:02:36.696Z,98413.77
2022-10-03T10:03:39.246Z,98420.64
2022-10-03T10:04:54.986Z,98412.62
2022-10-03T10:05:46.266Z,98411.42
2022-10-03T10:06:48.904Z,98420.88
2022-10-03T10:07:51.353Z,98420.84
2022-10-03T10:08:53.794Z,98419.17
2022-10-03T10:09:56.281Z,98434.77
2022-10-03T10:10:59.045Z,98427.02
2022-10-03T10:12:01.491Z,98430.08
2022-10-03T10:13:03.941Z,98432.54
2022-10-03T10:14:08.013Z,98427.41
2022-10-03T10:15:10.799Z,98430.89
2022-10-03T10:16:13.657Z,98442.16
2022-10-03T10:17:16.301Z,98436.61
2022-10-03T10:18:18.782Z,98428.86
2022-10-03T10:19:21.238Z,98430.72
2022-10-03T10:20:23.916Z,98431.12
2022-10-03T10:21:26.366Z,98443.61
2022-10-03T10:22:28.997Z,98432.17
2022-10-03T10:23:31.455Z,98434.00
2022-10-03T10:24:33.905Z,98444.64
2022-10-03T10:25:36.381Z,98442.41
2022-10-03T10:26:39.023Z,98439.55
2022-10-03T10:27:41.665Z,98441.76
2022-10-03T10:28:44.132Z,98442.98
2022-10-03T10:30:56.821Z,98443.58
2022-10-03T10:31:59.482Z,98446.69
2022-10-03T10:33:01.926Z,98446.66
2022-10-03T10:34:04.365Z,98440.56
2022-10-03T10:35:06.813Z,98445.06
2022-10-03T10:36:09.588Z,98450.37
2022-10-03T10:37:12.076Z,98447.08
2022-10-03T10:38:14.520Z,98450.38
2022-10-03T10:39:17.038Z,98445.88
2022-10-03T10:40:19.644Z,98453.63
2022-10-03T10:41:22.143Z,98448.94
2022-10-03T10:42:25.003Z,98453.03
2022-10-03T10:43:27.451Z,98460.98
2022-10-03T10:44:29.900Z,98463.22
2022-10-03T10:45:32.342Z,98461.75
2022-10-03T10:46:34.989Z,98456.26
2022-10-03T10:47:37.475Z,98462.58
2022-10-03T10:48:39.942Z,98467.08
2022-10-03T10:49:42.388Z,98467.08
2022-10-03T10:50:45.311Z,98459.02
2022-10-03T10:51:47.809Z,98467.73
2022-10-03T10:52:50.264Z,98474.70
2022-10-03T10:53:52.727Z,98461.44
2022-10-03T10:54:55.180Z,98460.80
2022-10-03T10:55:57.623Z,98471.25
2022-10-03T10:57:00.132Z,98463.27
2022-10-03T10:58:02.588Z,98461.44
2022-10-03T10:59:05.035Z,98467.36
2022-10-03T11:00:07.791Z,98470.64
2022-10-03T11:01:10.275Z,98471.25
2022-10-03T11:02:13.245Z,98472.50
2022-10-03T11:03:15.720Z,98474.12
2022-10-03T11:04:18.208Z,98477.80
2022-10-03T11:05:20.703Z,98495.36
2022-10-03T11:06:23.182Z,98489.86
2022-10-03T11:07:25.678Z,98495.97
2022-10-03T11:08:28.124Z,98487.39
2022-10-03T11:09:30.565Z,98486.38
2022-10-03T11:10:33.306Z,98493.53
2022-10-03T11:11:35.791Z,98496.38
2022-10-03T11:12:38.262Z,98490.90
2022-10-03T11:13:40.775Z,98490.05
2022-10-03T11:14:43.553Z,98506.02
2022-10-03T11:15:46.032Z,98489.27
2022-10-03T11:16:48.782Z,98495.40
2022-10-03T11:17:51.477Z,98496.20
2022-10-03T11:18:53.932Z,98497.03
2022-10-03T11:19:56.373Z,98494.16
2022-10-03T11:20:59.027Z,98482.47
2022-10-03T11:22:01.669Z,98503.29
2022-10-03T11:23:04.949Z,98500.92
2022-10-03T11:24:07.756Z,98495.45
2022-10-03T11:25:10.233Z,98497.93
2022-10-03T11:26:12.785Z,98503.27
2022-10-03T11:27:15.222Z,98505.88
2022-10-03T11:28:19.040Z,98501.80
2022-10-03T11:29:22.062Z,98486.31
2022-10-03T11:30:24.652Z,98495.50
2022-10-03T11:31:27.156Z,98506.18
2022-10-03T11:32:29.642Z,98496.99
2022-10-03T11:33:32.167Z,98508.05
2022-10-03T11:34:34.613Z,98502.17
2022-10-03T11:35:42.148Z,98506.70
2022-10-03T11:36:42.095Z,98503.92
2022-10-03T11:37:45.146Z,98501.70
2022-10-03T11:38:47.698Z,98510.36
2022-10-03T11:39:50.145Z,98504.86
2022-10-03T11:40:52.804Z,98519.18
2022-10-03T11:41:55.287Z,98516.92
2022-10-03T11:42:57.748Z,98519.89
2022-10-03T11:44:01.904Z,98513.08
2022-10-03T11:45:04.642Z,98513.13
2022-10-03T11:46:07.222Z,98512.33
2022-10-03T11:47:09.739Z,98518.58
2022-10-03T11:48:12.243Z,98516.31
2022-10-03T11:49:14.729Z,98517.59
2022-10-03T11:50:17.478Z,98520.03
2022-10-03T11:51:19.950Z,98505.53
2022-10-03T11:52:22.386Z,98511.61
2022-10-03T11:53:24.953Z,98514.67
2022-10-03T11:54:32.202Z,98517.98
2022-10-03T11:55:31.809Z,98529.20
2022-10-03T11:56:34.474Z,98511.58
2022-10-03T11:57:36.939Z,98521.87
2022-10-03T11:58:39.403Z,98519.20
2022-10-03T11:59:41.891Z,98522.27
2022-10-03T12:00:44.434Z,98521.05
2022-10-03T12:01:50.825Z,98524.76
2022-10-03T12:02:51.559Z,98531.95
2022-10-03T12:03:54.337Z,98540.55
2022-10-03T12:04:56.875Z,98537.72
2022-10-03T12:05:59.364Z,98534.61
2022-10-03T12:07:02.011Z,98535.80
2022-10-03T12:08:04.478Z,98535.41
2022-10-03T12:09:06.929Z,98534.16
2022-10-03T12:10:10.461Z,98537.42
2022-10-03T12:11:13.070Z,98545.77
2022-10-03T12:12:15.745Z,98539.78
2022-10-03T12:13:18.189Z,98533.54
2022-10-03T12:14:20.635Z,98534.75
2022-10-03T12:15:23.223Z,98544.59
2022-10-03T12:16:26.375Z,98550.93
2022-10-03T12:17:28.876Z,98562.41
2022-10-03T12:18:31.332Z,98549.71
2022-10-03T12:19:33.821Z,98547.84